| time (UTC) | temp F | wind direction | speed knots | gust knots | rain 1hr in | rain 24hr in | rain mn in | humidity % | barometer mb |
| 20260507134600 | 53 | 311 | 7.0 | 10.4 | 0.00 | 0.77 | 0.20 | 75 | 1004.9 |
| 20260507133106 | 52 | 307 | 7.0 | 11.3 | 0.00 | 0.77 | 0.20 | 79 | 1005.5 |
| 20260507131603 | 51 | 302 | 5.2 | 13.9 | 0.00 | 0.77 | 0.20 | 80 | 1005.6 |
| 20260507130109 | 50 | 266 | 4.3 | 12.2 | 0.00 | 0.77 | 0.20 | 84 | 1005.2 |
| 20260507124605 | 48 | 296 | 5.2 | 13.0 | 0.00 | 0.77 | 0.20 | 86 | 1005.3 |
| 20260507123059 | 47 | 280 | 7.0 | 11.3 | 0.00 | 0.77 | 0.20 | 89 | 1004.9 |
| 20260507121607 | 46 | 296 | 7.8 | 11.3 | 0.00 | 0.77 | 0.20 | 90 | 1004.9 |
| 20260507120105 | 46 | 277 | 6.1 | 11.3 | 0.00 | 0.77 | 0.20 | 92 | 1005.2 |
| 20260507114614 | 45 | 280 | 2.6 | 7.0 | 0.00 | 0.77 | 0.20 | 93 | 1005.9 |
| 20260507113101 | 45 | 325 | 2.6 | 6.1 | 0.00 | 0.77 | 0.20 | 93 | 1005.6 |
| 20260507111604 | 44 | 273 | 2.6 | 7.0 | 0.00 | 0.77 | 0.20 | 93 | 1005.7 |
| 20260507110109 | 44 | 294 | 3.5 | 6.1 | 0.00 | 0.77 | 0.20 | 93 | 1005.7 |
| 20260507104601 | 44 | 297 | 3.5 | 9.6 | 0.00 | 0.77 | 0.20 | 93 | 1005.8 |
| 20260507103101 | 44 | 312 | 5.2 | 10.4 | 0.00 | 0.77 | 0.20 | 93 | 1004.7 |
| 20260507101605 | 44 | 285 | 5.2 | 10.4 | 0.00 | 0.77 | 0.20 | 93 | 1005.0 |
| 20260507100103 | 44 | 302 | 6.1 | 13.0 | 0.00 | 0.77 | 0.20 | 94 | 1004.4 |
| 20260507094558 | 44 | 275 | 7.0 | 13.0 | 0.00 | 0.77 | 0.20 | 94 | 1004.6 |
| 20260507093059 | 44 | 318 | 7.0 | 13.0 | 0.00 | 0.77 | 0.20 | 94 | 1004.3 |
| 20260507091600 | 44 | 301 | 6.1 | 10.4 | 0.00 | 0.77 | 0.20 | 94 | 1004.9 |
| 20260507090058 | 44 | 276 | 7.0 | 14.8 | 0.00 | 0.77 | 0.20 | 94 | 1004.7 |
| 20260507084559 | 45 | 305 | 7.8 | 13.9 | 0.00 | 0.77 | 0.20 | 94 | 1004.6 |
| 20260507083056 | 45 | 318 | 7.0 | 14.8 | 0.00 | 0.77 | 0.20 | 95 | 1004.2 |
| 20260507081604 | 46 | 321 | 7.8 | 12.2 | 0.00 | 0.77 | 0.20 | 95 | 1004.1 |
| 20260507080104 | 46 | 306 | 6.1 | 11.3 | 0.01 | 0.77 | 0.20 | 94 | 1004.2 |
| 20260507074609 | 46 | 302 | 7.0 | 13.9 | 0.01 | 0.77 | 0.20 | 94 | 1003.9 |
| 20260507073057 | 46 | 289 | 7.8 | 13.9 | 0.01 | 0.77 | 0.20 | 95 | 1003.8 |
| 20260507071600 | 46 | 275 | 7.0 | 13.9 | 0.02 | 0.77 | 0.20 | 94 | 1003.8 |
| 20260507070058 | 46 | 324 | 7.0 | 13.0 | 0.01 | 0.76 | 0.19 | 94 | 1003.4 |
| 20260507064609 | 47 | 292 | 9.6 | 15.6 | 0.07 | 0.76 | 0.19 | 95 | 1003.5 |
| 20260507063100 | 47 | 309 | 7.0 | 13.9 | 0.16 | 0.76 | 0.19 | 95 | 1003.8 |
| 20260507061608 | 48 | 296 | 7.0 | 14.8 | 0.17 | 0.75 | 0.18 | 94 | 1003.5 |
| 20260507060059 | 48 | 279 | 8.7 | 13.9 | 0.17 | 0.75 | 0.18 | 95 | 1002.9 |
| 20260507054639 | 48 | 227 | 12.2 | 21.7 | 0.11 | 0.69 | 0.12 | 95 | 1004.2 |
| 20260507053101 | 48 | 234 | 7.8 | 13.9 | 0.02 | 0.60 | 0.03 | 94 | 1003.4 |
| 20260507051604 | 48 | 233 | 9.6 | 13.9 | 0.01 | 0.58 | 0.01 | 95 | 1003.1 |
| 20260507050100 | 48 | 210 | 8.7 | 14.8 | 0.01 | 0.58 | 0.01 | 94 | 1003.4 |
| 20260507044605 | 48 | 197 | 10.4 | 18.2 | 0.01 | 0.58 | 0.01 | 94 | 1003.0 |
| 20260507043103 | 49 | 207 | 11.3 | 19.1 | 0.01 | 0.58 | 0.01 | 94 | 1003.2 |
| 20260507041605 | 49 | 215 | 9.6 | 17.4 | 0.00 | 0.57 | 0.00 | 94 | 1003.3 |
| 20260507040058 | 48 | 213 | 11.3 | 20.0 | 0.00 | 0.57 | 0.00 | 94 | 1003.6 |
| 20260507034602 | 49 | 206 | 13.0 | 22.6 | 0.00 | 0.57 | 0.57 | 94 | 1003.6 |
| 20260507033106 | 49 | 172 | 13.0 | 20.0 | 0.00 | 0.57 | 0.57 | 94 | 1003.6 |
| 20260507031609 | 49 | 207 | 9.6 | 19.1 | 0.02 | 0.57 | 0.57 | 94 | 1003.9 |
| 20260507024607 | 50 | 169 | 14.8 | 28.7 | 0.06 | 0.57 | 0.57 | 94 | 1004.4 |
| 20260507023143 | 51 | 175 | 13.0 | 40.0 | 0.09 | 0.57 | 0.57 | 94 | 1004.4 |
| 20260507021643 | 51 | 183 | 14.8 | 28.7 | 0.14 | 0.55 | 0.55 | 94 | 1004.7 |
| 20260507020144 | 51 | 174 | 13.9 | 23.5 | 0.16 | 0.52 | 0.52 | 94 | 1004.9 |
| 20260507014645 | 51 | 162 | 13.0 | 28.7 | 0.16 | 0.51 | 0.51 | 94 | 1005.1 |
| 20260507013145 | 51 | 171 | 16.5 | 26.1 | 0.18 | 0.48 | 0.48 | 94 | 1005.3 |
| 20260507011643 | 52 | 179 | 13.9 | 25.2 | 0.16 | 0.41 | 0.41 | 94 | 1005.7 |
| 20260507010144 | 51 | 165 | 15.6 | 27.8 | 0.16 | 0.37 | 0.37 | 94 | 1005.9 |
| 20260507004644 | 51 | 165 | 15.6 | 30.4 | 0.17 | 0.34 | 0.34 | 94 | 1006.2 |
| 20260507003144 | 51 | 194 | 15.6 | 26.9 | 0.17 | 0.30 | 0.30 | 94 | 1006.4 |
| 20260507001644 | 51 | 192 | 15.6 | 32.2 | 0.15 | 0.25 | 0.25 | 93 | 1006.5 |
| 20260507000145 | 51 | 167 | 17.4 | 29.5 | 0.12 | 0.21 | 0.21 | 93 | 1006.7 |
| 20260506234645 | 51 | 169 | 20.9 | 34.8 | 0.08 | 0.17 | 0.17 | 93 | 1006.8 |
| 20260506233121 | 51 | 213 | 13.9 | 26.1 | 0.05 | 0.13 | 0.13 | 93 | 1006.8 |
| 20260506231559 | 51 | 180 | 16.5 | 37.4 | 0.03 | 0.10 | 0.10 | 93 | 1007.1 |
| 20260506230059 | 51 | 179 | 14.8 | 26.1 | 0.03 | 0.09 | 0.09 | 93 | 1007.1 |
| 20260506224600 | 51 | 186 | 14.8 | 27.8 | 0.06 | 0.09 | 0.09 | 93 | 1007.2 |
| 20260506223104 | 51 | 192 | 16.5 | 25.2 | 0.06 | 0.08 | 0.08 | 93 | 1007.4 |
| 20260506221600 | 51 | 171 | 13.9 | 25.2 | 0.06 | 0.07 | 0.07 | 93 | 1007.2 |
| 20260506220100 | 51 | 182 | 18.2 | 28.7 | 0.05 | 0.06 | 0.06 | 93 | 1007.8 |
| 20260506214600 | 51 | 185 | 17.4 | 25.2 | 0.03 | 0.03 | 0.03 | 92 | 1008.0 |
| 20260506213120 | 51 | 187 | 13.9 | 25.2 | 0.02 | 0.02 | 0.02 | 92 | 1008.1 |
| 20260506211601 | 51 | 186 | 13.0 | 22.6 | 0.01 | 0.01 | 0.01 | 92 | 1008.0 |
| 20260506210100 | 51 | 180 | 13.9 | 26.1 | 0.01 | 0.01 | 0.01 | 91 | 1008.4 |
| 20260506204559 | 51 | 189 | 13.0 | 24.3 | 0.00 | 0.00 | 0.00 | 90 | 1008.5 |
| 20260506203100 | 52 | 200 | 15.6 | 26.9 | 0.00 | 0.00 | 0.00 | 89 | 1008.1 |
| 20260506201600 | 52 | 199 | 15.6 | 33.9 | 0.00 | 0.00 | 0.00 | 89 | 1008.2 |
| 20260506200059 | 52 | 200 | 15.6 | 28.7 | 0.00 | 0.00 | 0.00 | 89 | 1008.0 |
| 20260506194634 | 52 | 161 | 13.9 | 28.7 | 0.00 | 0.00 | 0.00 | 88 | 1008.1 |
| 20260506193106 | 53 | 196 | 13.9 | 22.6 | 0.00 | 0.00 | 0.00 | 87 | 1008.2 |
| 20260506191600 | 53 | 194 | 12.2 | 27.8 | 0.00 | 0.00 | 0.00 | 86 | 1008.6 |
| 20260506184601 | 53 | 188 | 14.8 | 27.8 | 0.00 | 0.00 | 0.00 | 87 | 1008.8 |
| 20260506183101 | 53 | 167 | 12.2 | 26.1 | 0.00 | 0.00 | 0.00 | 87 | 1008.9 |
| 20260506181559 | 54 | 184 | 11.3 | 20.9 | 0.00 | 0.00 | 0.00 | 86 | 1008.9 |
| 20260506180106 | 54 | 148 | 14.8 | 26.1 | 0.00 | 0.00 | 0.00 | 85 | 1009.0 |
| 20260506174601 | 55 | 187 | 10.4 | 20.9 | 0.00 | 0.00 | 0.00 | 85 | 1009.2 |
| 20260506173059 | 55 | 191 | 13.9 | 28.7 | 0.00 | 0.00 | 0.00 | 84 | 1009.3 |
| 20260506171604 | 56 | 151 | 15.6 | 30.4 | 0.00 | 0.00 | 0.00 | 83 | 1009.4 |
| 20260506170111 | 56 | 210 | 15.6 | 29.5 | 0.00 | 0.00 | 0.00 | 83 | 1009.5 |
| 20260506164615 | 57 | 205 | 14.8 | 26.9 | 0.00 | 0.00 | 0.00 | 82 | 1009.5 |
| 20260506163119 | 57 | 200 | 15.6 | 26.9 | 0.00 | 0.00 | 0.00 | 83 | 1009.9 |
| 20260506161614 | 56 | 190 | 16.5 | 26.1 | 0.00 | 0.00 | 0.00 | 84 | 1010.2 |
| 20260506160059 | 57 | 205 | 14.8 | 31.3 | 0.00 | 0.00 | 0.00 | 83 | 1010.0 |
| 20260506154624 | 56 | 207 | 15.6 | 28.7 | 0.00 | 0.00 | 0.00 | 85 | 1010.0 |
| 20260506153110 | 56 | 195 | 16.5 | 26.1 | 0.00 | 0.00 | 0.00 | 86 | 1009.9 |
| 20260506151600 | 55 | 180 | 10.4 | 21.7 | 0.00 | 0.00 | 0.00 | 88 | 1009.8 |
| 20260506144601 | 53 | 206 | 13.0 | 22.6 | 0.00 | 0.00 | 0.00 | 89 | 1010.5 |
| 20260506143107 | 53 | 194 | 13.0 | 22.6 | 0.00 | 0.00 | 0.00 | 89 | 1010.6 |
| 20260506141559 | 53 | 200 | 12.2 | 21.7 | 0.00 | 0.00 | 0.00 | 89 | 1010.5 |
| 20260506140101 | 53 | 214 | 11.3 | 20.9 | 0.00 | 0.00 | 0.00 | 89 | 1010.4 |